sensor_id;sensor_type;location;lat;lon;timestamp;pressure;altitude;pressure_sealevel;temperature;humidity
22605;BME280;11469;49.024;8.246;2023-03-13T00:00:52;99887.09;;;10.98;79.64
22605;BME280;11469;49.024;8.246;2023-03-13T00:03:18;99899.47;;;10.97;79.69
22605;BME280;11469;49.024;8.246;2023-03-13T00:05:44;99883.41;;;10.94;79.92
22605;BME280;11469;49.024;8.246;2023-03-13T00:08:09;99887.84;;;10.95;79.80
22605;BME280;11469;49.024;8.246;2023-03-13T00:10:39;99880.28;;;10.99;79.69
22605;BME280;11469;49.024;8.246;2023-03-13T00:13:05;99875.13;;;11.01;79.12
22605;BME280;11469;49.024;8.246;2023-03-13T00:15:31;99875.97;;;11.05;79.19
22605;BME280;11469;49.024;8.246;2023-03-13T00:17:56;99863.63;;;11.10;79.04
22605;BME280;11469;49.024;8.246;2023-03-13T00:20:22;99860.88;;;11.13;78.74
22605;BME280;11469;49.024;8.246;2023-03-13T00:22:47;99853.66;;;11.12;78.74
22605;BME280;11469;49.024;8.246;2023-03-13T00:25:12;99855.97;;;11.07;79.35
22605;BME280;11469;49.024;8.246;2023-03-13T00:27:38;99848.84;;;11.13;78.85
22605;BME280;11469;49.024;8.246;2023-03-13T00:30:03;99848.84;;;11.13;78.86
22605;BME280;11469;49.024;8.246;2023-03-13T00:32:29;99852.00;;;11.08;79.14
22605;BME280;11469;49.024;8.246;2023-03-13T00:34:54;99846.28;;;11.01;79.39
22605;BME280;11469;49.024;8.246;2023-03-13T00:37:20;99840.34;;;11.06;79.48
22605;BME280;11469;49.024;8.246;2023-03-13T00:39:45;99829.50;;;11.04;78.88
22605;BME280;11469;49.024;8.246;2023-03-13T00:42:10;99831.53;;;11.07;79.25
22605;BME280;11469;49.024;8.246;2023-03-13T00:44:36;99820.72;;;11.06;79.03
22605;BME280;11469;49.024;8.246;2023-03-13T00:47:01;99811.50;;;11.05;79.42
22605;BME280;11469;49.024;8.246;2023-03-13T00:49:27;99809.50;;;11.06;79.27
22605;BME280;11469;49.024;8.246;2023-03-13T00:51:52;99808.69;;;11.05;79.14
22605;BME280;11469;49.024;8.246;2023-03-13T00:54:17;99805.97;;;11.12;78.58
22605;BME280;11469;49.024;8.246;2023-03-13T00:56:43;99799.09;;;11.06;79.24
22605;BME280;11469;49.024;8.246;2023-03-13T00:59:09;99800.66;;;11.04;79.26
22605;BME280;11469;49.024;8.246;2023-03-13T01:01:35;99791.06;;;11.05;79.45
22605;BME280;11469;49.024;8.246;2023-03-13T01:04:03;99786.69;;;11.07;79.10
22605;BME280;11469;49.024;8.246;2023-03-13T01:06:31;99779.13;;;11.11;78.51
22605;BME280;11469;49.024;8.246;2023-03-13T01:08:57;99780.84;;;11.19;77.95
22605;BME280;11469;49.024;8.246;2023-03-13T01:11:25;99775.28;;;11.23;77.80
22605;BME280;11469;49.024;8.246;2023-03-13T01:14:07;99775.19;;;11.16;78.54
22605;BME280;11469;49.024;8.246;2023-03-13T01:16:34;99771.31;;;11.27;77.63
22605;BME280;11469;49.024;8.246;2023-03-13T01:19:02;99771.28;;;11.24;77.79
22605;BME280;11469;49.024;8.246;2023-03-13T01:21:29;99767.81;;;11.34;76.89
22605;BME280;11469;49.024;8.246;2023-03-13T01:23:55;99758.13;;;11.28;77.32
22605;BME280;11469;49.024;8.246;2023-03-13T01:26:21;99751.47;;;11.43;76.52
22605;BME280;11469;49.024;8.246;2023-03-13T01:28:47;99749.00;;;11.38;76.52
22605;BME280;11469;49.024;8.246;2023-03-13T01:31:34;99747.75;;;11.32;76.89
22605;BME280;11469;49.024;8.246;2023-03-13T01:34:02;99746.19;;;11.38;76.64
22605;BME280;11469;49.024;8.246;2023-03-13T01:36:28;99733.72;;;11.32;77.46
22605;BME280;11469;49.024;8.246;2023-03-13T01:38:55;99730.53;;;11.37;77.14
22605;BME280;11469;49.024;8.246;2023-03-13T01:41:22;99731.81;;;11.43;77.15
22605;BME280;11469;49.024;8.246;2023-03-13T01:43:48;99726.97;;;11.40;77.85
22605;BME280;11469;49.024;8.246;2023-03-13T01:46:16;99728.16;;;11.39;78.38
22605;BME280;11469;49.024;8.246;2023-03-13T01:51:24;99715.75;;;11.40;78.50
22605;BME280;11469;49.024;8.246;2023-03-13T01:54:18;99718.69;;;11.51;78.09
22605;BME280;11469;49.024;8.246;2023-03-13T01:57:04;99723.41;;;11.43;78.58
22605;BME280;11469;49.024;8.246;2023-03-13T01:59:38;99720.19;;;11.41;79.29
22605;BME280;11469;49.024;8.246;2023-03-13T02:02:05;99703.34;;;11.41;79.88
22605;BME280;11469;49.024;8.246;2023-03-13T02:04:35;99702.53;;;11.41;80.11
22605;BME280;11469;49.024;8.246;2023-03-13T02:07:07;99699.34;;;11.42;80.68
22605;BME280;11469;49.024;8.246;2023-03-13T02:09:35;99691.69;;;11.39;81.48
22605;BME280;11469;49.024;8.246;2023-03-13T02:14:35;99680.44;;;11.36;82.36
22605;BME280;11469;49.024;8.246;2023-03-13T02:17:02;99678.44;;;11.33;83.52
22605;BME280;11469;49.024;8.246;2023-03-13T02:19:36;99673.63;;;11.33;83.81
22605;BME280;11469;49.024;8.246;2023-03-13T02:27:23;99671.06;;;11.21;86.53
22605;BME280;11469;49.024;8.246;2023-03-13T02:29:50;99671.88;;;11.21;86.73
22605;BME280;11469;49.024;8.246;2023-03-13T02:32:16;99663.44;;;11.18;87.26
22605;BME280;11469;49.024;8.246;2023-03-13T02:34:43;99656.97;;;11.14;87.89
22605;BME280;11469;49.024;8.246;2023-03-13T02:37:10;99654.97;;;11.14;87.75
22605;BME280;11469;49.024;8.246;2023-03-13T02:39:42;99648.91;;;11.09;88.97
22605;BME280;11469;49.024;8.246;2023-03-13T02:42:10;99645.41;;;11.19;88.51
22605;BME280;11469;49.024;8.246;2023-03-13T02:44:40;99645.06;;;11.24;88.07
22605;BME280;11469;49.024;8.246;2023-03-13T02:47:06;99636.66;;;11.24;88.23
22605;BME280;11469;49.024;8.246;2023-03-13T02:49:34;99641.41;;;11.20;88.60
22605;BME280;11469;49.024;8.246;2023-03-13T02:52:10;99639.41;;;11.20;89.32
22605;BME280;11469;49.024;8.246;2023-03-13T02:54:37;99631.44;;;11.22;88.95
22605;BME280;11469;49.024;8.246;2023-03-13T02:57:04;99639.00;;;11.18;89.67
22605;BME280;11469;49.024;8.246;2023-03-13T02:59:30;99632.56;;;11.18;90.64
22605;BME280;11469;49.024;8.246;2023-03-13T03:01:55;99632.50;;;11.11;91.28
22605;BME280;11469;49.024;8.246;2023-03-13T03:04:22;99622.47;;;11.10;92.38
22605;BME280;11469;49.024;8.246;2023-03-13T03:06:48;99624.00;;;11.04;93.41
22605;BME280;11469;49.024;8.246;2023-03-13T03:09:14;99614.75;;;11.00;95.13
22605;BME280;11469;49.024;8.246;2023-03-13T03:11:40;99611.47;;;10.94;95.85
22605;BME280;11469;49.024;8.246;2023-03-13T03:14:05;99620.22;;;10.89;97.20
22605;BME280;11469;49.024;8.246;2023-03-13T03:16:31;99618.22;;;10.86;98.38
22605;BME280;11469;49.024;8.246;2023-03-13T03:18:56;99623.34;;;10.80;99.56
22605;BME280;11469;49.024;8.246;2023-03-13T03:21:22;99615.41;;;10.86;99.84
22605;BME280;11469;49.024;8.246;2023-03-13T03:23:48;99611.75;;;10.82;100.00
22605;BME280;11469;49.024;8.246;2023-03-13T03:26:15;99609.28;;;10.77;100.00
22605;BME280;11469;49.024;8.246;2023-03-13T03:28:40;99612.03;;;10.73;100.00
22605;BME280;11469;49.024;8.246;2023-03-13T03:31:08;99610.44;;;10.72;100.00
22605;BME280;11469;49.024;8.246;2023-03-13T03:33:34;99605.25;;;10.74;100.00
22605;BME280;11469;49.024;8.246;2023-03-13T03:36:01;99606.78;;;10.68;100.00
22605;BME280;11469;49.024;8.246;2023-03-13T03:38:27;99600.41;;;10.71;100.00
22605;BME280;11469;49.024;8.246;2023-03-13T03:40:52;99602.84;;;10.73;100.00
22605;BME280;11469;49.024;8.246;2023-03-13T03:43:18;99610.53;;;10.79;100.00
22605;BME280;11469;49.024;8.246;2023-03-13T03:45:43;99600.88;;;10.77;100.00
22605;BME280;11469;49.024;8.246;2023-03-13T03:48:09;99606.44;;;10.73;100.00
22605;BME280;11469;49.024;8.246;2023-03-13T03:50:34;99606.50;;;10.77;100.00
22605;BME280;11469;49.024;8.246;2023-03-13T03:53:00;99590.91;;;10.79;100.00
22605;BME280;11469;49.024;8.246;2023-03-13T03:55:25;99575.34;;;10.85;100.00
22605;BME280;11469;49.024;8.246;2023-03-13T03:57:50;99569.31;;;10.83;100.00
22605;BME280;11469;49.024;8.246;2023-03-13T04:00:16;99586.94;;;10.84;100.00
22605;BME280;11469;49.024;8.246;2023-03-13T04:02:43;99588.53;;;10.81;100.00
22605;BME280;11469;49.024;8.246;2023-03-13T04:05:09;99581.72;;;10.82;100.00
22605;BME280;11469;49.024;8.246;2023-03-13T04:07:34;99574.88;;;10.80;100.00
22605;BME280;11469;49.024;8.246;2023-03-13T04:10:00;99574.56;;;10.85;100.00
22605;BME280;11469;49.024;8.246;2023-03-13T04:12:25;99573.75;;;10.88;100.00
22605;BME280;11469;49.024;8.246;2023-03-13T04:14:51;99568.28;;;10.98;100.00
22605;BME280;11469;49.024;8.246;2023-03-13T04:17:16;99560.31;;;11.04;99.71
22605;BME280;11469;49.024;8.246;2023-03-13T04:19:42;99553.97;;;11.11;98.34
22605;BME280;11469;49.024;8.246;2023-03-13T04:22:07;99550.41;;;11.14;98.06
22605;BME280;11469;49.024;8.246;2023-03-13T04:24:32;99545.59;;;11.14;97.64
22605;BME280;11469;49.024;8.246;2023-03-13T04:26:58;99550.47;;;11.21;96.62
22605;BME280;11469;49.024;8.246;2023-03-13T04:29:24;99532.53;;;11.29;95.77
22605;BME280;11469;49.024;8.246;2023-03-13T04:31:49;99535.72;;;11.27;96.31
22605;BME280;11469;49.024;8.246;2023-03-13T04:34:15;99535.75;;;11.35;95.76
22605;BME280;11469;49.024;8.246;2023-03-13T04:36:40;99535.34;;;11.33;95.90
22605;BME280;11469;49.024;8.246;2023-03-13T04:39:06;99531.78;;;11.39;95.94
22605;BME280;11469;49.024;8.246;2023-03-13T04:41:31;99525.41;;;11.42;95.87
22605;BME280;11469;49.024;8.246;2023-03-13T04:43:57;99521.47;;;11.50;95.60
22605;BME280;11469;49.024;8.246;2023-03-13T04:46:22;99531.47;;;11.51;95.89
22605;BME280;11469;49.024;8.246;2023-03-13T04:48:48;99533.88;;;11.49;95.90
22605;BME280;11469;49.024;8.246;2023-03-13T04:51:13;99529.88;;;11.50;95.95
22605;BME280;11469;49.024;8.246;2023-03-13T04:53:38;99522.69;;;11.53;95.56
22605;BME280;11469;49.024;8.246;2023-03-13T04:56:04;99522.72;;;11.56;95.40
22605;BME280;11469;49.024;8.246;2023-03-13T04:58:29;99528.31;;;11.56;95.18
22605;BME280;11469;49.024;8.246;2023-03-13T05:00:55;99529.16;;;11.60;94.56
22605;BME280;11469;49.024;8.246;2023-03-13T05:03:21;99522.78;;;11.67;94.78
22605;BME280;11469;49.024;8.246;2023-03-13T05:05:47;99536.41;;;11.65;95.62
22605;BME280;11469;49.024;8.246;2023-03-13T05:08:12;99538.41;;;11.64;97.39
22605;BME280;11469;49.024;8.246;2023-03-13T05:10:37;99539.91;;;11.51;100.00
22605;BME280;11469;49.024;8.246;2023-03-13T05:13:03;99541.38;;;11.38;100.00
22605;BME280;11469;49.024;8.246;2023-03-13T05:15:28;99530.56;;;11.37;100.00
22605;BME280;11469;49.024;8.246;2023-03-13T05:17:54;99535.34;;;11.33;100.00
22605;BME280;11469;49.024;8.246;2023-03-13T05:20:19;99534.56;;;11.36;100.00
22605;BME280;11469;49.024;8.246;2023-03-13T05:22:45;99541.34;;;11.31;100.00
22605;BME280;11469;49.024;8.246;2023-03-13T05:25:10;99538.09;;;11.25;100.00
22605;BME280;11469;49.024;8.246;2023-03-13T05:27:35;99531.75;;;11.32;100.00
22605;BME280;11469;49.024;8.246;2023-03-13T05:30:01;99542.16;;;11.35;100.00
22605;BME280;11469;49.024;8.246;2023-03-13T05:32:26;99542.97;;;11.36;100.00
22605;BME280;11469;49.024;8.246;2023-03-13T05:34:51;99527.75;;;11.37;100.00
22605;BME280;11469;49.024;8.246;2023-03-13T05:37:17;99542.63;;;11.41;100.00
22605;BME280;11469;49.024;8.246;2023-03-13T05:39:42;99537.44;;;11.43;100.00
22605;BME280;11469;49.024;8.246;2023-03-13T05:42:08;99539.47;;;11.49;100.00
22605;BME280;11469;49.024;8.246;2023-03-13T05:44:33;99534.72;;;11.53;100.00
22605;BME280;11469;49.024;8.246;2023-03-13T05:46:58;99540.75;;;11.55;100.00
22605;BME280;11469;49.024;8.246;2023-03-13T05:49:24;99530.38;;;11.63;100.00
22605;BME280;11469;49.024;8.246;2023-03-13T05:51:49;99537.16;;;11.58;100.00
22605;BME280;11469;49.024;8.246;2023-03-13T05:54:14;99536.00;;;11.67;100.00
22605;BME280;11469;49.024;8.246;2023-03-13T05:56:40;99522.78;;;11.67;100.00
22605;BME280;11469;49.024;8.246;2023-03-13T05:59:05;99542.50;;;11.74;100.00
22605;BME280;11469;49.024;8.246;2023-03-13T06:01:30;99528.81;;;11.69;100.00
22605;BME280;11469;49.024;8.246;2023-03-13T06:03:56;99536.84;;;11.71;100.00
22605;BME280;11469;49.024;8.246;2023-03-13T06:06:21;99530.84;;;11.72;100.00
22605;BME280;11469;49.024;8.246;2023-03-13T06:08:46;99532.47;;;11.73;100.00
22605;BME280;11469;49.024;8.246;2023-03-13T06:11:12;99542.47;;;11.71;100.00
22605;BME280;11469;49.024;8.246;2023-03-13T06:13:37;99539.22;;;11.65;100.00
22605;BME280;11469;49.024;8.246;2023-03-13T06:16:03;99552.03;;;11.62;100.00
22605;BME280;11469;49.024;8.246;2023-03-13T06:18:29;99543.22;;;11.64;100.00
22605;BME280;11469;49.024;8.246;2023-03-13T06:20:57;99540.03;;;11.69;100.00
22605;BME280;11469;49.024;8.246;2023-03-13T06:23:22;99536.88;;;11.74;100.00
22605;BME280;11469;49.024;8.246;2023-03-13T06:25:48;99540.94;;;11.77;100.00
22605;BME280;11469;49.024;8.246;2023-03-13T06:28:14;99538.16;;;11.84;100.00
22605;BME280;11469;49.024;8.246;2023-03-13T06:30:39;99527.31;;;11.82;100.00
22605;BME280;11469;49.024;8.246;2023-03-13T06:33:05;99528.56;;;11.88;100.00
22605;BME280;11469;49.024;8.246;2023-03-13T06:35:30;99535.41;;;11.91;100.00
22605;BME280;11469;49.024;8.246;2023-03-13T06:37:56;99529.81;;;11.94;100.00
22605;BME280;11469;49.024;8.246;2023-03-13T06:40:21;99533.41;;;11.95;100.00
22605;BME280;11469;49.024;8.246;2023-03-13T06:42:47;99532.63;;;11.98;100.00
22605;BME280;11469;49.024;8.246;2023-03-13T06:45:12;99533.88;;;12.04;100.00
22605;BME280;11469;49.024;8.246;2023-03-13T06:47:37;99540.66;;;12.00;100.00
22605;BME280;11469;49.024;8.246;2023-03-13T06:50:03;99537.09;;;12.06;100.00
22605;BME280;11469;49.024;8.246;2023-03-13T06:52:28;99535.84;;;12.00;100.00
22605;BME280;11469;49.024;8.246;2023-03-13T06:54:54;99529.47;;;12.07;100.00
22605;BME280;11469;49.024;8.246;2023-03-13T06:57:19;99538.69;;;12.04;100.00
22605;BME280;11469;49.024;8.246;2023-03-13T06:59:45;99537.88;;;12.03;100.00
22605;BME280;11469;49.024;8.246;2023-03-13T07:02:10;99524.66;;;12.04;100.00
22605;BME280;11469;49.024;8.246;2023-03-13T07:04:36;99532.69;;;12.05;100.00
22605;BME280;11469;49.024;8.246;2023-03-13T07:07:02;99521.88;;;12.11;100.00
22605;BME280;11469;49.024;8.246;2023-03-13T07:09:27;99525.06;;;12.09;100.00
22605;BME280;11469;49.024;8.246;2023-03-13T07:11:53;99522.28;;;12.09;100.00
22605;BME280;11469;49.024;8.246;2023-03-13T07:14:19;99508.66;;;12.15;100.00
22605;BME280;11469;49.024;8.246;2023-03-13T07:16:45;99498.22;;;12.15;100.00
22605;BME280;11469;49.024;8.246;2023-03-13T07:19:11;99506.69;;;12.19;100.00
22605;BME280;11469;49.024;8.246;2023-03-13T07:21:36;99504.69;;;12.23;100.00
22605;BME280;11469;49.024;8.246;2023-03-13T07:24:02;99516.72;;;12.20;100.00
22605;BME280;11469;49.024;8.246;2023-03-13T07:26:28;99510.72;;;12.25;100.00
22605;BME280;11469;49.024;8.246;2023-03-13T07:28:54;99501.09;;;12.29;100.00
22605;BME280;11469;49.024;8.246;2023-03-13T07:31:20;99501.50;;;12.35;100.00
22605;BME280;11469;49.024;8.246;2023-03-13T07:33:46;99495.91;;;12.42;100.00
22605;BME280;11469;49.024;8.246;2023-03-13T07:36:14;99515.97;;;12.37;100.00
22605;BME280;11469;49.024;8.246;2023-03-13T07:38:40;99497.94;;;12.45;100.00
22605;BME280;11469;49.024;8.246;2023-03-13T07:41:07;99495.56;;;12.51;100.00
22605;BME280;11469;49.024;8.246;2023-03-13T07:43:32;99493.97;;;12.53;100.00
22605;BME280;11469;49.024;8.246;2023-03-13T07:46:00;99494.38;;;12.59;99.91
22605;BME280;11469;49.024;8.246;2023-03-13T07:48:34;99491.16;;;12.60;99.88
22605;BME280;11469;49.024;8.246;2023-03-13T07:51:01;99481.97;;;12.71;99.69
22605;BME280;11469;49.024;8.246;2023-03-13T07:53:27;99496.84;;;12.85;99.10
22605;BME280;11469;49.024;8.246;2023-03-13T07:58:27;99506.13;;;13.04;97.17
22605;BME280;11469;49.024;8.246;2023-03-13T08:00:52;99508.53;;;13.02;97.31
22605;BME280;11469;49.024;8.246;2023-03-13T08:03:18;99504.50;;;13.06;97.34
22605;BME280;11469;49.024;8.246;2023-03-13T08:05:43;99512.13;;;13.06;97.46
22605;BME280;11469;49.024;8.246;2023-03-13T08:08:09;99510.53;;;13.05;97.25
22605;BME280;11469;49.024;8.246;2023-03-13T08:10:34;99496.88;;;13.07;97.44
22605;BME280;11469;49.024;8.246;2023-03-13T08:13:00;99502.91;;;13.05;97.41
22605;BME280;11469;49.024;8.246;2023-03-13T08:15:25;99504.50;;;13.06;97.44
22605;BME280;11469;49.024;8.246;2023-03-13T08:17:53;99507.31;;;13.03;96.99
22605;BME280;11469;49.024;8.246;2023-03-13T08:20:18;99512.13;;;13.02;97.21
22605;BME280;11469;49.024;8.246;2023-03-13T08:22:44;99502.91;;;13.02;97.89
22605;BME280;11469;49.024;8.246;2023-03-13T08:25:11;99503.69;;;13.02;97.84
22605;BME280;11469;49.024;8.246;2023-03-13T08:27:37;99505.72;;;13.02;97.98
22605;BME280;11469;49.024;8.246;2023-03-13T08:30:03;99507.72;;;13.01;98.11
22605;BME280;11469;49.024;8.246;2023-03-13T08:32:28;99506.13;;;13.04;97.46
22605;BME280;11469;49.024;8.246;2023-03-13T08:34:56;99490.06;;;13.11;96.81
22605;BME280;11469;49.024;8.246;2023-03-13T08:37:22;99489.25;;;13.14;96.67
22605;BME280;11469;49.024;8.246;2023-03-13T08:39:47;99491.66;;;13.09;97.05
22605;BME280;11469;49.024;8.246;2023-03-13T08:42:14;99482.06;;;13.17;96.64
22605;BME280;11469;49.024;8.246;2023-03-13T08:44:39;99494.09;;;13.24;96.06
22605;BME280;11469;49.024;8.246;2023-03-13T08:47:06;99484.84;;;13.31;95.67
22605;BME280;11469;49.024;8.246;2023-03-13T08:49:31;99484.44;;;13.33;96.19
22605;BME280;11469;49.024;8.246;2023-03-13T08:51:57;99478.81;;;13.33;96.33
22605;BME280;11469;49.024;8.246;2023-03-13T08:54:22;99478.00;;;13.36;96.26
22605;BME280;11469;49.024;8.246;2023-03-13T08:56:47;99484.44;;;13.43;95.91
22605;BME280;11469;49.024;8.246;2023-03-13T08:59:13;99469.97;;;13.45;95.31
22605;BME280;11469;49.024;8.246;2023-03-13T09:01:40;99453.06;;;13.63;94.26
22605;BME280;11469;49.024;8.246;2023-03-13T09:04:06;99457.44;;;13.71;93.82
22605;BME280;11469;49.024;8.246;2023-03-13T09:06:32;99446.97;;;13.85;92.75
22605;BME280;11469;49.024;8.246;2023-03-13T09:08:58;99450.53;;;14.04;91.78
22605;BME280;11469;49.024;8.246;2023-03-13T09:11:24;99442.84;;;14.15;91.44
22605;BME280;11469;49.024;8.246;2023-03-13T09:13:50;99447.56;;;14.32;90.25
22605;BME280;11469;49.024;8.246;2023-03-13T09:16:23;99437.84;;;14.51;89.61
22605;BME280;11469;49.024;8.246;2023-03-13T09:18:49;99434.50;;;14.70;88.36
22605;BME280;11469;49.024;8.246;2023-03-13T09:21:18;99436.41;;;14.87;86.85
22605;BME280;11469;49.024;8.246;2023-03-13T09:23:44;99425.06;;;14.94;86.65
22605;BME280;11469;49.024;8.246;2023-03-13T09:26:10;99423.00;;;15.02;85.04
22605;BME280;11469;49.024;8.246;2023-03-13T09:28:36;99424.97;;;15.09;85.30
22605;BME280;11469;49.024;8.246;2023-03-13T09:31:08;99430.50;;;15.16;85.89
22605;BME280;11469;49.024;8.246;2023-03-13T09:33:34;99435.66;;;15.28;85.01
22605;BME280;11469;49.024;8.246;2023-03-13T09:36:00;99427.84;;;15.46;83.69
22605;BME280;11469;49.024;8.246;2023-03-13T09:38:25;99424.41;;;15.66;82.47
22605;BME280;11469;49.024;8.246;2023-03-13T09:40:52;99431.06;;;15.86;81.66
22605;BME280;11469;49.024;8.246;2023-03-13T09:46:01;99425.53;;;16.09;80.43
22605;BME280;11469;49.024;8.246;2023-03-13T09:48:35;99431.91;;;16.17;80.29
22605;BME280;11469;49.024;8.246;2023-03-13T09:56:41;99407.22;;;16.21;79.19
22605;BME280;11469;49.024;8.246;2023-03-13T09:59:27;99408.91;;;16.15;79.13
22605;BME280;11469;49.024;8.246;2023-03-13T10:01:54;99389.94;;;16.15;78.05
22605;BME280;11469;49.024;8.246;2023-03-13T10:04:34;99393.13;;;16.17;77.59
22605;BME280;11469;49.024;8.246;2023-03-13T10:07:02;99393.84;;;16.25;77.93
22605;BME280;11469;49.024;8.246;2023-03-13T10:09:30;99394.06;;;16.38;77.51
22605;BME280;11469;49.024;8.246;2023-03-13T10:12:14;99388.28;;;16.48;76.22
22605;BME280;11469;49.024;8.246;2023-03-13T10:14:42;99386.13;;;16.56;76.00
22605;BME280;11469;49.024;8.246;2023-03-13T10:19:46;99373.53;;;16.60;76.24
22605;BME280;11469;49.024;8.246;2023-03-13T10:22:19;99378.06;;;16.54;76.24
22605;BME280;11469;49.024;8.246;2023-03-13T10:24:50;99378.00;;;16.58;76.53
22605;BME280;11469;49.024;8.246;2023-03-13T10:27:16;99374.19;;;16.45;76.34
22605;BME280;11469;49.024;8.246;2023-03-13T10:29:42;99381.53;;;16.39;76.81
22605;BME280;11469;49.024;8.246;2023-03-13T10:32:11;99367.53;;;16.28;76.89
22605;BME280;11469;49.024;8.246;2023-03-13T10:35:00;99360.28;;;16.27;77.43
22605;BME280;11469;49.024;8.246;2023-03-13T10:37:39;99358.22;;;16.31;77.38
22605;BME280;11469;49.024;8.246;2023-03-13T10:40:26;99343.94;;;16.42;76.72
22605;BME280;11469;49.024;8.246;2023-03-13T10:42:59;99334.59;;;16.45;76.44
22605;BME280;11469;49.024;8.246;2023-03-13T10:45:26;99343.50;;;16.43;76.91
22605;BME280;11469;49.024;8.246;2023-03-13T10:47:56;99326.00;;;16.52;76.64
22605;BME280;11469;49.024;8.246;2023-03-13T10:50:25;99322.91;;;16.70;77.33
22605;BME280;11469;49.024;8.246;2023-03-13T10:52:52;99318.19;;;16.86;75.43
22605;BME280;11469;49.024;8.246;2023-03-13T10:55:20;99318.88;;;16.94;75.05
22605;BME280;11469;49.024;8.246;2023-03-13T10:57:59;99308.28;;;16.98;74.49
22605;BME280;11469;49.024;8.246;2023-03-13T11:00:36;99300.16;;;17.00;75.04
22605;BME280;11469;49.024;8.246;2023-03-13T11:03:22;99289.47;;;17.08;74.64
22605;BME280;11469;49.024;8.246;2023-03-13T11:06:01;99278.56;;;17.30;74.68
22605;BME280;11469;49.024;8.246;2023-03-13T11:08:33;99284.16;;;17.53;73.83
22605;BME280;11469;49.024;8.246;2023-03-13T11:11:01;99273.47;;;17.61;71.79
22605;BME280;11469;49.024;8.246;2023-03-13T11:13:41;99260.66;;;17.76;71.95
22605;BME280;11469;49.024;8.246;2023-03-13T11:21:43;99243.22;;;18.30;69.77
22605;BME280;11469;49.024;8.246;2023-03-13T11:24:21;99239.81;;;18.51;68.28
22605;BME280;11469;49.024;8.246;2023-03-13T11:27:01;99224.06;;;18.66;67.51
22605;BME280;11469;49.024;8.246;2023-03-13T11:32:30;99213.31;;;18.90;66.73
22605;BME280;11469;49.024;8.246;2023-03-13T11:35:03;99207.47;;;18.81;65.86
22605;BME280;11469;49.024;8.246;2023-03-13T11:37:32;99202.06;;;18.86;65.91
22605;BME280;11469;49.024;8.246;2023-03-13T11:40:20;99192.53;;;18.93;65.86
22605;BME280;11469;49.024;8.246;2023-03-13T11:43:25;99185.84;;;18.87;66.07
22605;BME280;11469;49.024;8.246;2023-03-13T11:46:10;99185.56;;;19.10;65.60
22605;BME280;11469;49.024;8.246;2023-03-13T11:51:55;99147.78;;;19.39;64.32
22605;BME280;11469;49.024;8.246;2023-03-13T11:57:24;99131.59;;;19.52;63.48
22605;BME280;11469;49.024;8.246;2023-03-13T12:00:20;99133.44;;;19.59;64.04
22605;BME280;11469;49.024;8.246;2023-03-13T12:03:04;99136.97;;;19.63;62.83
22605;BME280;11469;49.024;8.246;2023-03-13T12:05:44;99113.66;;;19.80;62.57
22605;BME280;11469;49.024;8.246;2023-03-13T12:08:17;99116.47;;;19.93;61.23
22605;BME280;11469;49.024;8.246;2023-03-13T12:13:28;99110.00;;;19.93;60.24
22605;BME280;11469;49.024;8.246;2023-03-13T12:15:58;99101.91;;;20.04;60.86
22605;BME280;11469;49.024;8.246;2023-03-13T12:18:40;99090.53;;;20.04;58.57
22605;BME280;11469;49.024;8.246;2023-03-13T12:21:22;99087.59;;;19.95;59.06
22605;BME280;11469;49.024;8.246;2023-03-13T12:23:56;99072.69;;;19.91;58.69
22605;BME280;11469;49.024;8.246;2023-03-13T12:26:38;99092.19;;;19.79;59.45
22605;BME280;11469;49.024;8.246;2023-03-13T12:29:12;99078.31;;;19.81;59.64
22605;BME280;11469;49.024;8.246;2023-03-13T12:31:58;99083.09;;;19.84;59.26
22605;BME280;11469;49.024;8.246;2023-03-13T12:34:35;99067.81;;;19.91;58.34
22605;BME280;11469;49.024;8.246;2023-03-13T12:37:11;99067.94;;;19.87;58.55
22605;BME280;11469;49.024;8.246;2023-03-13T12:39:48;99057.91;;;19.96;58.84
22605;BME280;11469;49.024;8.246;2023-03-13T12:45:16;99040.41;;;19.97;58.44
22605;BME280;11469;49.024;8.246;2023-03-13T12:50:41;99025.44;;;20.18;57.81
22605;BME280;11469;49.024;8.246;2023-03-13T13:01:14;98995.22;;;20.34;56.45
22605;BME280;11469;49.024;8.246;2023-03-13T13:04:05;98991.00;;;20.38;56.92
22605;BME280;11469;49.024;8.246;2023-03-13T13:06:52;98986.03;;;20.30;56.42
22605;BME280;11469;49.024;8.246;2023-03-13T13:09:23;98972.41;;;20.25;56.40
22605;BME280;11469;49.024;8.246;2023-03-13T13:11:50;98971.03;;;20.29;55.87
22605;BME280;11469;49.024;8.246;2023-03-13T13:17:14;98955.34;;;20.25;56.85
22605;BME280;11469;49.024;8.246;2023-03-13T13:32:46;98898.94;;;20.76;57.52
22605;BME280;11469;49.024;8.246;2023-03-13T13:37:38;98889.66;;;20.94;57.71
22605;BME280;11469;49.024;8.246;2023-03-13T13:42:55;98873.28;;;21.07;56.21
22605;BME280;11469;49.024;8.246;2023-03-13T13:45:27;98874.53;;;21.06;55.75
22605;BME280;11469;49.024;8.246;2023-03-13T13:54:02;98855.06;;;21.04;54.31
22605;BME280;11469;49.024;8.246;2023-03-13T13:56:40;98858.84;;;21.01;55.98
22605;BME280;11469;49.024;8.246;2023-03-13T14:04:42;98833.06;;;20.96;54.94
22605;BME280;11469;49.024;8.246;2023-03-13T14:07:15;98828.31;;;21.02;55.39
22605;BME280;11469;49.024;8.246;2023-03-13T14:09:46;98823.91;;;21.10;54.54
22605;BME280;11469;49.024;8.246;2023-03-13T14:12:32;98819.75;;;20.93;54.29
22605;BME280;11469;49.024;8.246;2023-03-13T14:15:17;98807.53;;;20.83;54.92
22605;BME280;11469;49.024;8.246;2023-03-13T14:17:47;98806.75;;;20.82;55.58
22605;BME280;11469;49.024;8.246;2023-03-13T14:22:47;98793.78;;;20.81;54.87
22605;BME280;11469;49.024;8.246;2023-03-13T14:25:13;98779.06;;;20.83;55.27
22605;BME280;11469;49.024;8.246;2023-03-13T14:27:43;98771.47;;;20.80;55.09
22605;BME280;11469;49.024;8.246;2023-03-13T14:30:09;98759.94;;;20.74;54.55
22605;BME280;11469;49.024;8.246;2023-03-13T14:32:36;98773.84;;;20.72;55.06
22605;BME280;11469;49.024;8.246;2023-03-13T14:35:03;98755.19;;;20.80;55.09